Time;durP1;ratioP1;P1;durP2;ratioP2;P2;SDS_P1;SDS_P2;PMS_P1;PMS_P2;Temp;Humidity;BMP_temperature;BMP_pressure;BME280_temperature;BME280_humidity;BME280_pressure;Samples;Min_cycle;Max_cycle;Signal;HPM_P1;HPM_P2
2021/07/03 00:00:15;;;;;;;15.25;8.52;;;;;;;16.17;72.82;96450.28;5013154;28;20050;-78
2021/07/03 00:02:41;;;;;;;12.70;8.35;;;;;;;16.17;73.04;96458.53;5013720;28;20049;-78
2021/07/03 00:05:09;;;;;;;17.40;9.70;;;;;;;16.13;72.81;96460.38;5012962;28;20511;-79
2021/07/03 00:07:37;;;;;;;14.18;9.02;;;;;;;16.11;73.15;96462.69;5013633;28;20046;-78
2021/07/03 00:10:05;;;;;;;12.80;8.50;;;;;;;16.05;73.17;96462.13;5013187;28;20041;-77
2021/07/03 00:12:31;;;;;;;11.38;8.30;;;;;;;16.04;73.11;96463.28;5013443;28;20049;-77
2021/07/03 00:14:58;;;;;;;15.82;9.20;;;;;;;16.01;73.36;96457.69;5013468;28;20413;-77
2021/07/03 00:17:25;;;;;;;17.40;9.02;;;;;;;15.97;73.36;96457.59;5012869;28;20046;-78
2021/07/03 00:19:51;;;;;;;13.50;8.65;;;;;;;15.96;73.37;96455.19;5013369;28;20049;-79
2021/07/03 00:22:18;;;;;;;12.57;8.63;;;;;;;15.94;73.89;96457.50;5012873;28;20057;-78
2021/07/03 00:24:45;;;;;;;12.15;8.30;;;;;;;15.92;74.03;96446.84;5013233;28;20500;-78
2021/07/03 00:27:12;;;;;;;13.13;8.50;;;;;;;15.91;73.65;96446.06;5012915;28;20061;-77
2021/07/03 00:29:38;;;;;;;16.35;9.38;;;;;;;15.88;73.94;96448.72;5013039;28;20042;-78
2021/07/03 00:32:05;;;;;;;15.30;9.15;;;;;;;15.81;74.18;96454.00;5012569;28;20053;-77
2021/07/03 00:34:32;;;;;;;13.70;9.15;;;;;;;15.81;74.23;96454.00;5013097;28;20417;-77
2021/07/03 00:36:58;;;;;;;16.42;8.13;;;;;;;15.77;73.79;96453.13;5012713;28;20521;-78
2021/07/03 00:39:25;;;;;;;15.48;8.65;;;;;;;15.74;74.08;96437.34;5012688;28;20485;-77
2021/07/03 00:41:53;;;;;;;13.95;8.52;;;;;;;15.74;73.96;96438.13;5012994;28;20049;-79
2021/07/03 00:44:31;;;;;;;17.63;8.88;;;;;;;15.69;74.56;96435.63;5012519;28;20060;-77
2021/07/03 00:46:57;;;;;;;17.30;9.18;;;;;;;15.64;74.71;96428.44;5013051;28;20056;-78
2021/07/03 00:49:24;;;;;;;16.55;9.10;;;;;;;15.59;75.19;96430.59;5012361;28;20053;-78
2021/07/03 00:51:51;;;;;;;16.20;8.48;;;;;;;15.59;75.27;96425.09;5012754;28;20046;-77
2021/07/03 00:54:20;;;;;;;14.20;8.68;;;;;;;15.60;74.85;96426.69;5011915;28;20053;-79
2021/07/03 00:56:46;;;;;;;13.32;8.25;;;;;;;15.58;74.82;96429.00;5012752;28;20402;-77
2021/07/03 00:59:14;;;;;;;17.27;9.73;;;;;;;15.50;74.46;96429.94;5011676;28;20053;-78
2021/07/03 01:01:41;;;;;;;17.10;9.73;;;;;;;15.49;74.74;96431.09;5012163;28;20489;-78
2021/07/03 01:04:07;;;;;;;14.43;8.60;;;;;;;15.50;74.97;96429.94;5010356;28;20416;-78
2021/07/03 01:06:34;;;;;;;15.82;8.88;;;;;;;15.51;74.29;96429.59;5012394;28;20046;-78
2021/07/03 01:09:00;;;;;;;13.77;8.23;;;;;;;15.51;74.22;96432.34;5012278;28;20050;-78
2021/07/03 01:11:27;;;;;;;12.90;8.70;;;;;;;15.48;74.59;96435.78;5012141;28;20165;-77
2021/07/03 01:13:54;;;;;;;17.13;8.50;;;;;;;15.43;75.02;96437.97;5012335;28;20045;-77
2021/07/03 01:16:22;;;;;;;16.63;9.40;;;;;;;15.43;74.88;96437.97;5011818;28;20049;-78
2021/07/03 01:18:49;;;;;;;13.52;8.40;;;;;;;15.43;74.70;96432.47;5012221;28;20045;-79
2021/07/03 01:21:16;;;;;;;15.80;8.98;;;;;;;15.43;74.90;96443.47;5011777;28;20046;-78
2021/07/03 01:23:44;;;;;;;19.83;10.27;;;;;;;15.35;75.21;96434.22;5011933;28;20054;-78
2021/07/03 01:26:11;;;;;;;14.50;9.68;;;;;;;15.32;75.52;96440.41;5011796;28;20409;-78
2021/07/03 01:28:37;;;;;;;15.48;9.45;;;;;;;15.29;75.64;96444.63;5012171;28;20045;-78
2021/07/03 01:31:04;;;;;;;16.02;9.85;;;;;;;15.24;75.89;96435.81;5011360;28;20061;-78
2021/07/03 01:33:30;;;;;;;18.08;9.73;;;;;;;15.24;76.10;96438.56;5011594;28;20053;-77
2021/07/03 01:35:57;;;;;;;15.32;9.60;;;;;;;15.22;76.18;96443.63;5011750;28;20061;-78
2021/07/03 01:38:25;;;;;;;17.00;9.68;;;;;;;15.22;76.19;96444.41;5011343;28;20401;-78
2021/07/03 01:40:53;;;;;;;15.05;8.68;;;;;;;15.20;76.43;96446.72;5011751;28;20073;-78
2021/07/03 01:43:21;;;;;;;15.43;9.77;;;;;;;15.18;75.81;96448.97;5011361;28;20050;-78
2021/07/03 01:45:47;;;;;;;16.00;9.23;;;;;;;15.17;76.05;96443.84;5011846;28;20050;-78
2021/07/03 01:48:14;;;;;;;15.13;9.57;;;;;;;15.14;75.86;96437.13;5011251;28;20128;-78
2021/07/03 01:50:40;;;;;;;13.75;8.88;;;;;;;15.10;75.48;96438.94;5011690;28;20042;-78
2021/07/03 01:53:07;;;;;;;16.80;9.98;;;;;;;15.08;76.02;96438.47;5011253;28;20045;-77
2021/07/03 01:55:34;;;;;;;14.88;9.20;;;;;;;15.06;76.04;96441.56;5011485;28;20060;-78
2021/07/03 01:58:02;;;;;;;16.00;9.27;;;;;;;15.00;75.44;96442.16;5011685;28;20042;-78
2021/07/03 02:00:28;;;;;;;15.20;9.27;;;;;;;14.93;75.27;96436.44;5011184;28;20037;-77
2021/07/03 02:02:55;;;;;;;19.13;9.98;;;;;;;14.85;75.36;96441.72;5011171;28;20393;-77
2021/07/03 02:05:21;;;;;;;17.42;9.32;;;;;;;14.82;75.76;96436.09;5010933;28;20497;-78
2021/07/03 02:07:48;;;;;;;17.65;9.73;;;;;;;14.73;75.80;96427.22;5011269;28;20508;-77
2021/07/03 02:10:14;;;;;;;17.13;9.75;;;;;;;14.67;75.98;96429.38;5010865;28;20072;-78
2021/07/03 02:12:42;;;;;;;18.98;10.07;;;;;;;14.65;76.16;96425.38;5010421;28;20112;-77
2021/07/03 02:15:10;;;;;;;21.33;10.13;;;;;;;14.67;76.55;96423.91;5010794;28;20045;-77
2021/07/03 02:17:37;;;;;;;16.40;10.50;;;;;;;14.70;76.81;96423.19;5011292;28;20509;-77
2021/07/03 02:20:05;;;;;;;16.95;9.52;;;;;;;14.72;76.60;96420.94;5011036;28;20053;-78
2021/07/03 02:22:31;;;;;;;17.35;10.05;;;;;;;14.68;76.55;96425.50;5011391;28;20038;-78
2021/07/03 02:24:58;;;;;;;18.30;10.27;;;;;;;14.67;76.43;96423.91;5011180;28;20049;-78
2021/07/03 02:27:24;;;;;;;16.33;10.45;;;;;;;14.66;76.27;96422.28;5010951;28;20401;-78
2021/07/03 02:29:51;;;;;;;20.92;10.85;;;;;;;14.64;76.08;96419.09;5011087;28;20046;-77
2021/07/03 02:32:19;;;;;;;19.90;11.15;;;;;;;14.64;76.77;96421.84;5010705;28;20058;-78
2021/07/03 02:34:45;;;;;;;18.67;10.75;;;;;;;14.67;76.76;96423.91;5011264;28;20064;-77
2021/07/03 02:37:12;;;;;;;18.38;11.05;;;;;;;14.65;77.38;96426.16;5010416;28;20054;-77
2021/07/03 02:39:38;;;;;;;17.17;10.95;;;;;;;14.64;77.36;96424.56;5011348;28;20042;-77
2021/07/03 02:42:05;;;;;;;19.65;10.57;;;;;;;14.59;76.99;96422.06;5010678;28;20401;-77
2021/07/03 02:44:31;;;;;;;18.55;10.93;;;;;;;14.56;76.42;96420.00;5011134;28;20046;-77
2021/07/03 02:46:58;;;;;;;21.65;12.07;;;;;;;14.50;76.24;96424.09;5011010;28;20060;-79
2021/07/03 02:49:26;;;;;;;19.48;11.48;;;;;;;14.45;76.72;96432.50;5010600;28;20041;-79
2021/07/03 02:51:52;;;;;;;20.67;11.85;;;;;;;14.39;77.02;96420.19;5010987;28;20042;-77
2021/07/03 02:54:19;;;;;;;21.75;12.13;;;;;;;14.36;77.13;96419.75;5010636;28;20046;-77
2021/07/03 02:56:46;;;;;;;19.25;11.68;;;;;;;14.35;77.17;96423.63;5011065;28;20405;-78
2021/07/03 02:59:12;;;;;;;17.98;11.30;;;;;;;14.36;77.33;96435.38;5010613;28;20042;-78
2021/07/03 03:01:39;;;;;;;21.35;12.48;;;;;;;14.40;77.61;96435.47;5010905;28;20046;-78
2021/07/03 03:04:05;;;;;;;19.30;11.82;;;;;;;14.47;76.72;96435.72;5010142;28;20513;-78
2021/07/03 03:06:33;;;;;;;13.35;8.52;;;;;;;14.45;75.73;96443.47;5010946;28;20045;-77
2021/07/03 03:09:00;;;;;;;16.38;9.93;;;;;;;14.37;75.99;96442.44;5010792;28;20042;-79
2021/07/03 03:11:26;;;;;;;18.55;10.70;;;;;;;14.26;76.02;96431.13;5010228;28;20493;-78
2021/07/03 03:13:52;;;;;;;16.10;10.23;;;;;;;14.27;76.14;96443.69;5010826;28;20493;-77
2021/07/03 03:16:19;;;;;;;17.50;10.77;;;;;;;14.24;76.65;96449.81;5010300;28;20165;-77
2021/07/03 03:18:46;;;;;;;15.55;10.52;;;;;;;14.24;76.91;96438.88;5010926;28;20100;-77
2021/07/03 03:21:12;;;;;;;17.00;9.98;;;;;;;14.26;76.85;96447.56;5010333;28;20049;-78
2021/07/03 03:23:40;;;;;;;17.33;10.70;;;;;;;14.26;76.95;96441.28;5012661;28;20046;-77
2021/07/03 03:26:07;;;;;;;19.15;12.13;;;;;;;14.24;77.31;96447.09;5013928;28;20057;-78
2021/07/03 03:28:33;;;;;;;17.80;11.32;;;;;;;14.26;77.49;96444.03;5014217;28;20054;-77
2021/07/03 03:31:00;;;;;;;15.35;11.00;;;;;;;14.27;77.69;96445.63;5014146;28;20069;-76
2021/07/03 03:33:26;;;;;;;16.35;11.23;;;;;;;14.27;77.98;96451.91;5013270;28;20040;-76
2021/07/03 03:35:53;;;;;;;19.20;12.00;;;;;;;14.28;77.98;96448.03;5014198;28;20057;-76
2021/07/03 03:38:19;;;;;;;17.35;11.40;;;;;;;14.31;77.83;96444.63;5013466;28;20057;-77
2021/07/03 03:40:47;;;;;;;21.70;11.80;;;;;;;14.33;77.12;96452.47;5013979;28;20665;-78
2021/07/03 03:43:13;;;;;;;17.42;11.95;;;;;;;14.34;77.04;96446.66;5013451;28;20046;-78
2021/07/03 03:45:40;;;;;;;17.05;11.18;;;;;;;14.35;76.96;96441.97;5013923;28;20066;-77
2021/07/03 03:48:08;;;;;;;20.08;11.90;;;;;;;14.32;77.36;96440.72;5013544;28;20045;-78
2021/07/03 03:50:35;;;;;;;17.17;11.43;;;;;;;14.35;76.83;96445.53;5013920;28;20042;-77
2021/07/03 03:53:01;;;;;;;18.55;11.38;;;;;;;14.39;76.14;96448.38;5013659;28;20041;-77
2021/07/03 03:55:28;;;;;;;16.75;10.75;;;;;;;14.39;76.24;96444.84;5013610;28;20037;-79
2021/07/03 03:57:56;;;;;;;16.05;11.27;;;;;;;14.39;76.63;96442.09;5013720;28;20046;-78
2021/07/03 04:00:23;;;;;;;18.20;12.38;;;;;;;14.34;77.68;96443.13;5012993;28;20133;-77
2021/07/03 04:02:50;;;;;;;17.10;11.35;;;;;;;14.34;78.01;96440.38;5013271;28;20046;-78
2021/07/03 04:05:17;;;;;;;17.35;11.07;;;;;;;14.38;77.29;96443.25;5013140;28;20058;-78
2021/07/03 04:07:44;;;;;;;17.63;11.27;;;;;;;14.43;77.09;96451.25;5013378;28;20432;-77
2021/07/03 04:10:13;;;;;;;16.13;10.50;;;;;;;14.45;77.01;96449.75;5013132;28;20049;-77
2021/07/03 04:12:40;;;;;;;18.27;11.07;;;;;;;14.48;76.50;96454.59;5013259;28;20595;-76
2021/07/03 04:15:10;;;;;;;15.20;10.32;;;;;;;14.50;76.53;96457.78;5012962;28;20046;-78
2021/07/03 04:17:37;;;;;;;13.50;9.65;;;;;;;14.53;76.41;96456.31;5013407;28;20045;-78
2021/07/03 04:20:05;;;;;;;14.35;9.25;;;;;;;14.53;76.56;96456.31;5013189;28;20046;-78
2021/07/03 04:22:31;;;;;;;14.55;9.75;;;;;;;14.54;76.75;96455.16;5013175;28;20046;-78
2021/07/03 04:24:58;;;;;;;12.75;8.82;;;;;;;14.57;77.16;96457.25;5013140;28;20065;-77
2021/07/03 04:27:24;;;;;;;15.07;9.85;;;;;;;14.62;76.87;96459.75;5012685;28;20041;-78
2021/07/03 04:29:51;;;;;;;12.40;8.43;;;;;;;14.62;76.96;96459.75;5013091;28;20053;-77
2021/07/03 04:32:19;;;;;;;15.63;9.40;;;;;;;14.65;77.86;96459.06;5012665;28;20053;-77
2021/07/03 04:34:45;;;;;;;13.55;8.55;;;;;;;14.70;78.08;96464.31;5011981;28;20493;-77
2021/07/03 04:37:12;;;;;;;15.07;8.25;;;;;;;14.76;77.29;96460.19;5012270;28;20468;-79
2021/07/03 04:39:39;;;;;;;13.75;9.13;;;;;;;14.82;76.83;96463.50;5012994;28;20045;-77
2021/07/03 04:42:05;;;;;;;12.77;8.82;;;;;;;14.83;77.09;96456.91;5012436;28;20053;-78
2021/07/03 04:44:32;;;;;;;14.43;9.52;;;;;;;14.87;77.60;96455.06;5012892;28;20050;-78
2021/07/03 04:46:58;;;;;;;14.50;9.05;;;;;;;14.93;78.06;96453.72;5012898;28;20056;-78
2021/07/03 04:49:30;;;;;;;13.18;8.65;;;;;;;15.02;77.93;96450.84;5012285;28;20052;-77
2021/07/03 04:51:57;;;;;;;15.68;9.48;;;;;;;15.05;77.89;96450.16;5012682;28;20053;-78
2021/07/03 04:54:23;;;;;;;13.32;8.45;;;;;;;15.12;77.23;96448.41;5012226;28;20077;-78
2021/07/03 04:56:50;;;;;;;11.80;8.15;;;;;;;15.20;77.39;96449.47;5012679;28;20050;-79
2021/07/03 04:59:16;;;;;;;13.77;8.50;;;;;;;15.26;76.79;96445.31;5011997;28;20060;-79
2021/07/03 05:01:43;;;;;;;12.30;7.95;;;;;;;15.31;76.44;96436.84;5012705;28;20050;-79
2021/07/03 05:04:09;;;;;;;13.65;8.48;;;;;;;15.34;75.67;96430.66;5011680;28;20452;-79
2021/07/03 05:06:37;;;;;;;13.07;8.80;;;;;;;15.38;75.82;96439.81;5012364;28;20056;-80
2021/07/03 05:09:04;;;;;;;14.15;8.63;;;;;;;15.44;76.31;96425.84;5011920;28;20053;-79
2021/07/03 05:11:30;;;;;;;14.73;8.45;;;;;;;15.48;75.36;96430.28;5012472;28;20520;-80
2021/07/03 05:13:57;;;;;;;14.82;8.50;;;;;;;15.49;76.01;96420.91;5012139;28;20045;-79
2021/07/03 05:16:23;;;;;;;13.50;7.97;;;;;;;15.60;76.21;96421.22;5012019;28;20048;-79
2021/07/03 05:18:50;;;;;;;12.25;8.00;;;;;;;15.65;75.53;96423.75;5012280;28;20061;-80
2021/07/03 05:21:16;;;;;;;12.63;8.13;;;;;;;15.69;75.58;96421.91;5011844;28;20046;-79
2021/07/03 05:23:44;;;;;;;11.88;8.15;;;;;;;15.70;75.06;96418.00;5012299;28;20042;-79
2021/07/03 05:26:11;;;;;;;13.85;8.40;;;;;;;15.70;74.44;96420.75;5011715;28;20046;-79
2021/07/03 05:28:37;;;;;;;13.15;9.07;;;;;;;15.75;74.21;96420.50;5012057;28;20049;-79
2021/07/03 05:31:03;;;;;;;15.52;8.88;;;;;;;15.79;74.59;96421.41;5011724;28;20052;-80
2021/07/03 05:33:30;;;;;;;13.68;8.52;;;;;;;15.77;74.30;96426.47;5011596;28;20053;-78
2021/07/03 05:35:56;;;;;;;14.90;9.50;;;;;;;15.77;74.68;96423.72;5011880;28;20045;-78
2021/07/03 05:38:23;;;;;;;14.32;8.73;;;;;;;15.80;75.28;96428.47;5011315;28;20046;-79
2021/07/03 05:40:51;;;;;;;13.30;9.05;;;;;;;15.88;75.41;96427.56;5011936;28;20042;-76
2021/07/03 05:43:17;;;;;;;13.23;8.60;;;;;;;15.89;75.30;96434.63;5011444;28;20041;-77
2021/07/03 05:45:45;;;;;;;11.77;8.32;;;;;;;15.91;75.35;96435.06;5011701;28;20053;-77
2021/07/03 05:48:12;;;;;;;15.32;8.60;;;;;;;15.98;75.28;96434.50;5011307;28;20509;-77
2021/07/03 05:50:38;;;;;;;13.20;8.90;;;;;;;16.06;74.87;96438.22;5011347;28;20141;-78
2021/07/03 05:53:05;;;;;;;12.80;8.55;;;;;;;16.08;74.71;96441.44;5011210;28;20050;-77
2021/07/03 05:55:31;;;;;;;15.32;8.20;;;;;;;16.12;74.57;96445.03;5011527;28;20042;-77
2021/07/03 05:58:00;;;;;;;12.65;8.80;;;;;;;16.14;74.75;96443.56;5011174;28;20433;-78
2021/07/03 06:00:26;;;;;;;13.45;8.70;;;;;;;16.14;75.33;96449.06;5011342;28;20057;-77
2021/07/03 06:02:53;;;;;;;13.60;8.65;;;;;;;16.24;75.79;96444.19;5011141;28;20053;-77
2021/07/03 06:05:19;;;;;;;15.48;9.43;;;;;;;16.26;75.74;96448.19;5011088;28;20046;-76
2021/07/03 06:07:46;;;;;;;15.60;9.10;;;;;;;16.32;76.00;96452.25;5011527;28;20046;-76
2021/07/03 06:10:14;;;;;;;14.20;8.93;;;;;;;16.39;76.16;96448.88;5010941;28;20529;-77
2021/07/03 06:12:40;;;;;;;14.38;8.85;;;;;;;16.41;75.49;96452.91;5011139;28;20053;-77
2021/07/03 06:15:10;;;;;;;13.43;8.27;;;;;;;16.45;76.42;96453.00;5011114;28;20060;-77
2021/07/03 06:17:37;;;;;;;14.05;9.02;;;;;;;16.49;74.37;96444.81;5011380;28;20405;-77
2021/07/03 06:20:05;;;;;;;14.25;9.40;;;;;;;16.57;72.40;96446.63;5010801;28;20398;-77
2021/07/03 06:22:31;;;;;;;13.57;9.50;;;;;;;16.65;73.07;96442.88;5011393;28;20049;-77
2021/07/03 06:24:58;;;;;;;15.40;9.35;;;;;;;16.74;72.15;96437.25;5011382;28;20058;-76
2021/07/03 06:27:24;;;;;;;16.23;9.45;;;;;;;16.82;72.21;96448.06;5010666;28;20421;-78
2021/07/03 06:29:51;;;;;;;15.70;9.88;;;;;;;16.86;71.10;96439.88;5011232;28;20051;-76
2021/07/03 06:32:18;;;;;;;16.85;10.13;;;;;;;16.96;70.43;96442.09;5010858;28;20057;-76
2021/07/03 06:34:45;;;;;;;14.90;10.57;;;;;;;16.99;70.59;96440.59;5011177;28;20045;-77
2021/07/03 06:37:12;;;;;;;13.18;8.40;;;;;;;17.06;70.78;96441.53;5010664;28;20069;-76
2021/07/03 06:39:40;;;;;;;12.30;8.40;;;;;;;17.15;70.03;96438.59;5011093;28;20072;-77
2021/07/03 06:42:07;;;;;;;15.07;9.50;;;;;;;17.25;68.45;96429.00;5010696;28;20056;-77
2021/07/03 06:44:33;;;;;;;13.43;9.52;;;;;;;17.29;68.44;96427.94;5011012;28;20048;-77
2021/07/03 06:47:00;;;;;;;13.40;9.15;;;;;;;17.32;66.66;96426.41;5011356;28;20468;-76
2021/07/03 06:49:27;;;;;;;17.60;9.40;;;;;;;17.32;66.71;96420.88;5010545;28;20069;-76
2021/07/03 06:51:54;;;;;;;16.52;9.25;;;;;;;17.42;67.58;96432.13;5011087;28;20054;-77
2021/07/03 06:54:20;;;;;;;13.45;9.50;;;;;;;17.45;66.94;96431.44;5010326;28;20054;-77
2021/07/03 06:56:47;;;;;;;15.25;9.73;;;;;;;17.51;67.06;96428.38;5010947;28;20054;-77
2021/07/03 06:59:14;;;;;;;14.85;8.95;;;;;;;17.63;67.94;96431.00;5013558;28;20041;-78
2021/07/03 07:01:40;;;;;;;12.43;8.30;;;;;;;17.76;69.01;96426.97;5015015;28;20045;-76
2021/07/03 07:04:07;;;;;;;14.60;8.60;;;;;;;17.82;67.29;96427.47;5014039;28;20050;-77
2021/07/03 07:06:35;;;;;;;15.10;8.13;;;;;;;17.91;64.54;96428.88;5014671;28;20050;-77
2021/07/03 07:09:01;;;;;;;11.48;7.60;;;;;;;18.04;64.88;96434.22;5014678;28;20050;-77
2021/07/03 07:11:28;;;;;;;11.30;6.70;;;;;;;18.08;63.59;96435.09;5014271;28;20575;-77
2021/07/03 07:13:55;;;;;;;9.90;7.05;;;;;;;18.16;61.70;96425.75;5014408;28;20054;-77
2021/07/03 07:16:21;;;;;;;13.55;7.13;;;;;;;18.23;60.66;96423.16;5014131;28;20532;-77
2021/07/03 07:18:47;;;;;;;10.27;6.88;;;;;;;18.28;61.78;96422.88;5014480;28;20053;-78
2021/07/03 07:21:14;;;;;;;10.73;6.68;;;;;;;18.34;63.23;96423.34;5014001;28;20401;-77
2021/07/03 07:23:42;;;;;;;15.93;8.93;;;;;;;18.43;63.66;96421.97;5014406;28;20057;-76
2021/07/03 07:26:08;;;;;;;13.55;8.35;;;;;;;18.55;64.81;96414.66;5013797;28;20462;-77
2021/07/03 07:28:35;;;;;;;12.13;8.10;;;;;;;18.62;63.83;96409.25;5014153;28;20056;-77
2021/07/03 07:31:01;;;;;;;13.32;8.00;;;;;;;18.68;60.21;96413.31;5014381;28;20050;-79
2021/07/03 07:33:28;;;;;;;15.38;8.52;;;;;;;18.73;60.74;96415.78;5013320;28;20053;-76
2021/07/03 07:35:54;;;;;;;11.18;7.65;;;;;;;18.76;60.14;96415.03;5014364;28;20053;-78
2021/07/03 07:38:21;;;;;;;10.32;7.68;;;;;;;18.81;63.00;96406.47;5013608;28;20056;-77
2021/07/03 07:40:48;;;;;;;12.55;7.95;;;;;;;18.90;63.74;96403.44;5014238;28;20056;-78
2021/07/03 07:43:16;;;;;;;13.15;7.60;;;;;;;18.98;60.17;96403.16;5013541;28;20046;-77
2021/07/03 07:45:43;;;;;;;13.68;8.40;;;;;;;18.95;57.30;96403.94;5014101;28;20145;-78
2021/07/03 07:48:09;;;;;;;10.02;7.18;;;;;;;19.03;59.96;96391.03;5013732;28;20130;-77
2021/07/03 07:50:36;;;;;;;12.18;7.72;;;;;;;19.07;57.83;96397.41;5013895;28;20049;-79
2021/07/03 07:53:02;;;;;;;11.32;7.72;;;;;;;19.16;58.16;96388.81;5013503;28;20046;-77
2021/07/03 07:55:29;;;;;;;13.68;7.82;;;;;;;19.21;57.46;96391.25;5013792;28;20408;-78
2021/07/03 07:57:57;;;;;;;11.63;7.75;;;;;;;19.25;57.39;96381.88;5013798;28;20050;-78
2021/07/03 08:00:24;;;;;;;9.90;6.63;;;;;;;19.36;59.75;96387.53;5013414;28;20412;-78
2021/07/03 08:02:51;;;;;;;13.13;8.07;;;;;;;19.43;60.30;96393.16;5013323;28;20050;-78
2021/07/03 08:05:19;;;;;;;10.57;7.35;;;;;;;19.51;59.28;96383.78;5013186;28;20415;-77
2021/07/03 08:07:45;;;;;;;9.50;6.85;;;;;;;19.60;54.43;96378.00;5013600;28;20048;-77
2021/07/03 08:10:13;;;;;;;10.48;6.70;;;;;;;19.71;53.75;96380.91;5013102;28;20049;-77
2021/07/03 08:12:41;;;;;;;9.40;7.05;;;;;;;19.86;57.95;96379.09;5012260;28;20037;-77
2021/07/03 08:15:10;;;;;;;8.98;6.43;;;;;;;20.03;53.96;96371.00;5012927;28;20046;-76
2021/07/03 08:17:42;;;;;;;11.02;7.13;;;;;;;20.48;55.81;96371.88;5013335;28;20065;-76
2021/07/03 08:20:11;;;;;;;8.77;6.05;;;;;;;21.79;51.57;96368.34;5012954;28;20046;-78
2021/07/03 08:22:37;;;;;;;8.40;5.93;;;;;;;23.02;46.95;96365.38;5013047;28;20046;-78
2021/07/03 08:25:07;;;;;;;10.43;6.15;;;;;;;24.07;41.64;96370.19;5012908;28;20054;-78
2021/07/03 08:27:34;;;;;;;10.80;5.93;;;;;;;25.02;40.66;96364.34;5013236;28;20050;-78
2021/07/03 08:30:00;;;;;;;10.82;5.72;;;;;;;25.95;41.45;96368.97;5013413;28;20069;-78
2021/07/03 08:32:28;;;;;;;11.05;6.72;;;;;;;26.77;39.80;96368.56;5012609;28;20787;-77
2021/07/03 08:34:55;;;;;;;9.75;6.22;;;;;;;27.30;33.89;96368.88;5012954;28;20413;-78
2021/07/03 08:37:21;;;;;;;6.47;5.03;;;;;;;27.58;35.41;96356.38;5012485;28;20050;-78
2021/07/03 08:39:48;;;;;;;8.85;5.90;;;;;;;27.94;36.44;96350.09;5012969;28;20052;-77
2021/07/03 08:42:14;;;;;;;10.18;5.78;;;;;;;27.94;36.77;96359.28;5012515;28;20513;-79
2021/07/03 08:44:46;;;;;;;9.93;6.30;;;;;;;28.38;33.92;96348.72;5012966;28;20057;-78
2021/07/03 08:47:12;;;;;;;9.20;6.28;;;;;;;28.36;32.01;96336.38;5012305;28;20046;-78
2021/07/03 08:49:41;;;;;;;7.68;6.00;;;;;;;28.09;36.67;96340.16;5012515;28;20046;-77
2021/07/03 08:52:08;;;;;;;7.30;5.53;;;;;;;28.32;37.36;96337.22;5011977;28;20069;-77
2021/07/03 08:54:34;;;;;;;9.57;5.60;;;;;;;28.32;34.78;96328.03;5012540;28;20054;-80
2021/07/03 08:57:01;;;;;;;8.05;5.60;;;;;;;27.77;35.35;96329.63;5012739;28;20061;-78
2021/07/03 08:59:29;;;;;;;9.95;5.63;;;;;;;27.49;38.07;96328.19;5012479;28;20042;-78
2021/07/03 09:01:58;;;;;;;10.52;6.25;;;;;;;27.43;40.02;96324.31;5012448;28;20398;-77
2021/07/03 09:04:37;;;;;;;8.38;5.63;;;;;;;27.24;39.26;96323.84;5011774;28;20038;-78
2021/07/03 09:07:18;;;;;;;12.82;6.13;;;;;;;26.64;37.58;96330.50;5012198;28;20497;-78
2021/07/03 09:09:51;;;;;;;8.88;5.65;;;;;;;26.30;41.29;96328.59;5012546;28;20096;-78
2021/07/03 09:12:27;;;;;;;9.00;5.65;;;;;;;25.99;45.08;96327.84;5012020;28;20394;-78
2021/07/03 09:14:54;;;;;;;10.80;5.47;;;;;;;25.68;39.16;96325.00;5012185;28;20053;-79
2021/07/03 09:17:20;;;;;;;7.32;4.93;;;;;;;25.52;39.57;96342.34;5012015;28;20052;-78
2021/07/03 09:19:52;;;;;;;9.10;5.70;;;;;;;25.34;38.16;96336.19;5012348;28;20413;-78
2021/07/03 09:22:20;;;;;;;8.00;4.75;;;;;;;25.41;42.38;96332.53;5011288;28;20041;-78
2021/07/03 09:24:47;;;;;;;8.13;5.75;;;;;;;25.38;36.64;96330.59;5012165;28;20120;-78
2021/07/03 09:27:13;;;;;;;6.85;5.20;;;;;;;25.27;40.29;96324.31;5011736;28;20050;-78
2021/07/03 09:29:49;;;;;;;9.88;5.22;;;;;;;25.11;40.37;96325.69;5012078;28;20053;-79
2021/07/03 09:32:16;;;;;;;8.70;5.45;;;;;;;24.98;41.89;96324.59;5011627;28;20456;-78
2021/07/03 09:34:43;;;;;;;9.43;5.57;;;;;;;24.89;39.72;96318.69;5011686;28;20046;-78
2021/07/03 09:37:12;;;;;;;9.23;4.82;;;;;;;24.71;40.98;96316.88;5011504;28;20053;-79
2021/07/03 09:39:40;;;;;;;7.43;5.13;;;;;;;24.75;45.76;96316.06;5011869;28;20042;-79
2021/07/03 09:42:14;;;;;;;8.27;5.03;;;;;;;24.82;45.52;96310.44;5011477;28;20056;-78
2021/07/03 09:44:40;;;;;;;7.32;5.35;;;;;;;24.89;42.80;96307.56;5012050;28;20129;-78
2021/07/03 09:47:15;;;;;;;9.00;4.72;;;;;;;24.87;43.16;96315.56;5011545;28;20057;-79
2021/07/03 09:49:41;;;;;;;8.95;4.97;;;;;;;24.83;41.79;96314.78;5011974;28;20050;-78
2021/07/03 09:52:08;;;;;;;7.55;5.10;;;;;;;24.82;43.09;96310.44;5011139;28;20053;-79
2021/07/03 09:54:34;;;;;;;9.95;5.50;;;;;;;24.75;41.43;96318.84;5011704;28;20068;-79
2021/07/03 09:57:03;;;;;;;9.35;5.63;;;;;;;24.75;42.86;96305.72;5012066;28;20049;-79
2021/07/03 09:59:30;;;;;;;7.68;5.15;;;;;;;24.77;40.74;96308.09;5011490;28;20042;-79
2021/07/03 10:01:57;;;;;;;8.93;5.38;;;;;;;24.64;39.40;96299.44;5011612;28;20523;-79
2021/07/03 10:04:23;;;;;;;8.32;5.18;;;;;;;24.38;38.12;96309.19;5011250;28;20738;-79
2021/07/03 10:06:52;;;;;;;8.02;5.20;;;;;;;24.39;46.25;96308.00;5011760;28;20053;-78
2021/07/03 10:09:24;;;;;;;9.13;5.57;;;;;;;24.41;45.21;96309.19;5010820;28;20053;-79
2021/07/03 10:11:52;;;;;;;8.52;5.32;;;;;;;24.47;39.56;96309.53;5011689;28;20049;-78
2021/07/03 10:14:21;;;;;;;7.22;4.70;;;;;;;24.46;39.12;96305.16;5011039;28;20042;-79
2021/07/03 10:16:47;;;;;;;9.55;6.22;;;;;;;24.47;40.17;96306.75;5011534;28;20140;-78
2021/07/03 10:19:16;;;;;;;7.53;4.60;;;;;;;24.47;41.60;96309.53;5011290;28;20050;-78
2021/07/03 10:21:44;;;;;;;8.20;5.10;;;;;;;24.45;42.15;96303.59;5011492;28;20053;-79
2021/07/03 10:24:18;;;;;;;8.77;5.45;;;;;;;24.48;40.87;96297.19;5010911;28;20045;-78
2021/07/03 10:26:45;;;;;;;9.25;5.28;;;;;;;24.59;45.89;96299.88;5011572;28;20125;-79
2021/07/03 10:29:17;;;;;;;7.93;4.93;;;;;;;24.62;41.24;96294.28;5011058;28;20611;-79
2021/07/03 10:31:46;;;;;;;9.90;5.57;;;;;;;24.64;43.75;96289.13;5011677;28;20050;-78
2021/07/03 10:34:13;;;;;;;8.60;5.07;;;;;;;24.64;41.39;96289.13;5012355;28;20136;-78
2021/07/03 10:36:40;;;;;;;9.45;5.20;;;;;;;24.67;40.57;96293.84;5015314;28;20509;-79
2021/07/03 10:39:07;;;;;;;9.15;5.30;;;;;;;24.69;43.44;96296.22;5014880;28;20516;-79
2021/07/03 10:41:36;;;;;;;7.78;4.65;;;;;;;24.80;40.91;96296.13;5015527;28;20046;-79
2021/07/03 10:44:08;;;;;;;12.48;6.40;;;;;;;24.85;42.70;96299.25;5014966;28;20104;-78
2021/07/03 10:46:36;;;;;;;8.47;4.80;;;;;;;24.87;39.51;96291.28;5015459;28;20046;-80
2021/07/03 10:49:06;;;;;;;9.70;5.53;;;;;;;24.82;44.83;96288.16;5015020;28;20320;-78
2021/07/03 10:51:36;;;;;;;8.95;5.05;;;;;;;24.77;39.93;96285.81;5015243;28;20040;-79
2021/07/03 10:54:11;;;;;;;7.07;4.50;;;;;;;24.75;44.10;96277.09;5014598;28;20050;-77
2021/07/03 10:57:01;;;;;;;10.75;4.72;;;;;;;24.86;41.68;96283.34;5015134;28;20045;-79
2021/07/03 10:59:30;;;;;;;6.80;3.92;;;;;;;24.97;39.66;96270.88;5015037;28;20065;-78
2021/07/03 11:02:06;;;;;;;9.77;5.00;;;;;;;25.06;40.42;96275.16;5015372;28;20046;-79
2021/07/03 11:04:43;;;;;;;6.80;4.40;;;;;;;25.06;37.41;96277.94;5014323;28;20038;-78
2021/07/03 11:07:12;;;;;;;10.88;5.45;;;;;;;24.93;39.12;96272.13;5004898;28;20468;-77
2021/07/03 11:09:39;;;;;;;11.40;5.40;;;;;;;24.89;39.96;96274.13;5028450;28;20053;-79
2021/07/03 11:12:14;;;;;;;8.30;4.70;;;;;;;24.93;45.04;96266.53;5006087;28;20050;-78
2021/07/03 11:14:48;;;;;;;9.93;4.85;;;;;;;24.99;43.43;96267.66;5014912;28;20071;-78
2021/07/03 11:17:16;;;;;;;8.50;4.65;;;;;;;25.09;38.63;96264.00;5014475;28;20058;-79
2021/07/03 11:19:47;;;;;;;10.20;4.95;;;;;;;25.07;42.08;96255.28;5014575;28;20049;-79
2021/07/03 11:22:14;;;;;;;7.10;4.43;;;;;;;25.13;36.80;96248.03;5014475;28;20468;-80
2021/07/03 11:24:46;;;;;;;7.35;4.28;;;;;;;25.03;36.21;96248.94;5014799;28;20069;-79
2021/07/03 11:27:24;;;;;;;8.82;5.00;;;;;;;24.80;38.79;96251.56;5014188;28;20057;-79